Accueil
METAR-TAF:

METAR-TAF

Aéroports :

Aéroport de Nancy-Essey

Nancy, France

latitude: 48-41N, longitude: 006-13E, altitude: 225 m

Observation

Le bulletin a été fait il y a 39 minutes, à 10:00 UTC
Vent 10 kt de nord, variant entre nord/nord-ouest et nord-est
Température 9°C
Humidité 81%
Pression 1013 hPa
Visibilité: 9000 m
Quelques nuages à une hauteur de 1300 ft

METAR: LFSN 271000Z AUTO 01010KT 340V040 9000 FEW013 09/06 Q1013

Heure: 11:39 (10:39 UTC)


TAF: absent

Observations et prévisions météorologiques de plus de 4000 aéroports (messages METAR et TAF).

Les stations disponibles sont représentées par des disques jaunes et rouges sur la carte.

Passer la souris dessus pour voir le nom de la station.

Cliquer dessus pour voir les observations et prévisions météorologiques.

Pour changer de carte: cliquez sur les boutons verts avec une croix noire pour zoomer, sur le bouton vert avec un tiret pour effectuer un zoom arrière, ou sur les flèches vertes pour les cartes adjacentes.


METAR-TAF: